sensor_id;sensor_type;location;lat;lon;timestamp;P1;durP1;ratioP1;P2;durP2;ratioP2
38224;SDS011;24025;48.138;11.428;2023-12-04T00:00:07;12.80;;;4.35;;
38224;SDS011;24025;48.138;11.428;2023-12-04T00:05:10;10.27;;;4.57;;
38224;SDS011;24025;48.138;11.428;2023-12-04T00:07:42;5.43;;;2.70;;
38224;SDS011;24025;48.138;11.428;2023-12-04T00:10:14;7.22;;;3.30;;
38224;SDS011;24025;48.138;11.428;2023-12-04T00:12:45;7.82;;;3.42;;
38224;SDS011;24025;48.138;11.428;2023-12-04T00:15:18;10.70;;;4.05;;
38224;SDS011;24025;48.138;11.428;2023-12-04T00:17:50;7.15;;;3.95;;
38224;SDS011;24025;48.138;11.428;2023-12-04T00:20:22;6.80;;;3.03;;
38224;SDS011;24025;48.138;11.428;2023-12-04T00:22:54;13.40;;;4.50;;
38224;SDS011;24025;48.138;11.428;2023-12-04T00:25:25;6.22;;;3.70;;
38224;SDS011;24025;48.138;11.428;2023-12-04T00:27:57;8.57;;;2.97;;
38224;SDS011;24025;48.138;11.428;2023-12-04T00:30:29;10.00;;;3.63;;
38224;SDS011;24025;48.138;11.428;2023-12-04T00:33:00;6.80;;;3.28;;
38224;SDS011;24025;48.138;11.428;2023-12-04T00:35:32;9.85;;;3.47;;
38224;SDS011;24025;48.138;11.428;2023-12-04T00:38:04;7.80;;;3.40;;
38224;SDS011;24025;48.138;11.428;2023-12-04T00:40:35;10.60;;;3.67;;
38224;SDS011;24025;48.138;11.428;2023-12-04T00:43:07;11.52;;;4.50;;
38224;SDS011;24025;48.138;11.428;2023-12-04T00:45:39;11.32;;;4.53;;
38224;SDS011;24025;48.138;11.428;2023-12-04T00:48:11;9.60;;;4.40;;
38224;SDS011;24025;48.138;11.428;2023-12-04T00:50:42;6.57;;;3.03;;
38224;SDS011;24025;48.138;11.428;2023-12-04T00:53:14;11.13;;;3.60;;
38224;SDS011;24025;48.138;11.428;2023-12-04T00:55:46;7.22;;;3.83;;
38224;SDS011;24025;48.138;11.428;2023-12-04T00:58:17;10.38;;;3.85;;
38224;SDS011;24025;48.138;11.428;2023-12-04T01:00:49;8.27;;;3.58;;
38224;SDS011;24025;48.138;11.428;2023-12-04T01:03:23;14.52;;;4.70;;
38224;SDS011;24025;48.138;11.428;2023-12-04T01:05:57;9.02;;;4.50;;
38224;SDS011;24025;48.138;11.428;2023-12-04T01:08:29;14.18;;;5.15;;
38224;SDS011;24025;48.138;11.428;2023-12-04T01:11:01;13.95;;;5.50;;
38224;SDS011;24025;48.138;11.428;2023-12-04T01:13:33;11.55;;;4.85;;
38224;SDS011;24025;48.138;11.428;2023-12-04T01:16:04;12.88;;;5.07;;
38224;SDS011;24025;48.138;11.428;2023-12-04T01:18:37;11.07;;;4.35;;
38224;SDS011;24025;48.138;11.428;2023-12-04T01:21:09;8.00;;;4.25;;
38224;SDS011;24025;48.138;11.428;2023-12-04T01:23:40;6.22;;;4.30;;
38224;SDS011;24025;48.138;11.428;2023-12-04T01:26:12;10.23;;;4.95;;
38224;SDS011;24025;48.138;11.428;2023-12-04T01:28:43;9.98;;;4.85;;
38224;SDS011;24025;48.138;11.428;2023-12-04T01:31:15;11.40;;;5.25;;
38224;SDS011;24025;48.138;11.428;2023-12-04T01:33:47;11.20;;;4.85;;
38224;SDS011;24025;48.138;11.428;2023-12-04T01:36:18;7.72;;;3.67;;
38224;SDS011;24025;48.138;11.428;2023-12-04T01:38:51;10.00;;;3.78;;
38224;SDS011;24025;48.138;11.428;2023-12-04T01:41:22;11.88;;;4.38;;
38224;SDS011;24025;48.138;11.428;2023-12-04T01:43:54;9.90;;;4.25;;
38224;SDS011;24025;48.138;11.428;2023-12-04T01:46:25;9.80;;;4.22;;
38224;SDS011;24025;48.138;11.428;2023-12-04T01:48:58;9.85;;;4.30;;
38224;SDS011;24025;48.138;11.428;2023-12-04T01:51:30;9.25;;;4.28;;
38224;SDS011;24025;48.138;11.428;2023-12-04T01:54:03;9.40;;;4.07;;
38224;SDS011;24025;48.138;11.428;2023-12-04T01:56:36;11.85;;;4.80;;
38224;SDS011;24025;48.138;11.428;2023-12-04T01:59:08;9.82;;;3.85;;
38224;SDS011;24025;48.138;11.428;2023-12-04T02:01:40;12.40;;;5.10;;
38224;SDS011;24025;48.138;11.428;2023-12-04T02:04:12;7.47;;;3.95;;
38224;SDS011;24025;48.138;11.428;2023-12-04T02:06:44;12.90;;;4.07;;
38224;SDS011;24025;48.138;11.428;2023-12-04T02:09:15;8.23;;;4.07;;
38224;SDS011;24025;48.138;11.428;2023-12-04T02:11:47;15.50;;;5.22;;
38224;SDS011;24025;48.138;11.428;2023-12-04T02:14:19;6.88;;;3.50;;
38224;SDS011;24025;48.138;11.428;2023-12-04T02:16:51;5.28;;;3.95;;
38224;SDS011;24025;48.138;11.428;2023-12-04T02:19:25;9.32;;;4.53;;
38224;SDS011;24025;48.138;11.428;2023-12-04T02:24:29;8.68;;;3.33;;
38224;SDS011;24025;48.138;11.428;2023-12-04T02:27:08;7.72;;;3.47;;
38224;SDS011;24025;48.138;11.428;2023-12-04T02:29:47;11.20;;;3.95;;
38224;SDS011;24025;48.138;11.428;2023-12-04T02:32:23;8.10;;;3.85;;
38224;SDS011;24025;48.138;11.428;2023-12-04T02:34:57;8.88;;;3.53;;
38224;SDS011;24025;48.138;11.428;2023-12-04T02:37:33;8.70;;;3.60;;
38224;SDS011;24025;48.138;11.428;2023-12-04T02:40:05;10.65;;;3.92;;
38224;SDS011;24025;48.138;11.428;2023-12-04T02:42:37;6.60;;;3.67;;
38224;SDS011;24025;48.138;11.428;2023-12-04T02:45:09;5.97;;;3.55;;
38224;SDS011;24025;48.138;11.428;2023-12-04T02:47:41;7.75;;;4.07;;
38224;SDS011;24025;48.138;11.428;2023-12-04T02:50:12;7.97;;;4.00;;
38224;SDS011;24025;48.138;11.428;2023-12-04T02:52:44;8.98;;;3.60;;
38224;SDS011;24025;48.138;11.428;2023-12-04T02:55:16;7.90;;;3.50;;
38224;SDS011;24025;48.138;11.428;2023-12-04T02:57:47;6.90;;;3.25;;
38224;SDS011;24025;48.138;11.428;2023-12-04T03:00:19;7.97;;;3.67;;
38224;SDS011;24025;48.138;11.428;2023-12-04T03:02:51;9.23;;;3.00;;
38224;SDS011;24025;48.138;11.428;2023-12-04T03:05:22;9.35;;;3.83;;
38224;SDS011;24025;48.138;11.428;2023-12-04T03:07:54;7.13;;;3.42;;
38224;SDS011;24025;48.138;11.428;2023-12-04T03:10:25;7.78;;;3.42;;
38224;SDS011;24025;48.138;11.428;2023-12-04T03:12:57;7.18;;;3.38;;
38224;SDS011;24025;48.138;11.428;2023-12-04T03:15:29;4.80;;;3.30;;
38224;SDS011;24025;48.138;11.428;2023-12-04T03:18:01;6.95;;;2.97;;
38224;SDS011;24025;48.138;11.428;2023-12-04T03:20:35;8.75;;;2.92;;
38224;SDS011;24025;48.138;11.428;2023-12-04T03:23:07;5.95;;;2.88;;
38224;SDS011;24025;48.138;11.428;2023-12-04T03:25:40;5.57;;;3.38;;
38224;SDS011;24025;48.138;11.428;2023-12-04T03:28:11;8.52;;;3.55;;
38224;SDS011;24025;48.138;11.428;2023-12-04T03:30:46;6.00;;;2.55;;
38224;SDS011;24025;48.138;11.428;2023-12-04T03:33:18;6.85;;;3.40;;
38224;SDS011;24025;48.138;11.428;2023-12-04T03:35:50;9.65;;;3.17;;
38224;SDS011;24025;48.138;11.428;2023-12-04T03:38:21;10.82;;;3.97;;
38224;SDS011;24025;48.138;11.428;2023-12-04T03:40:53;6.35;;;3.00;;
38224;SDS011;24025;48.138;11.428;2023-12-04T03:43:24;4.32;;;2.75;;
38224;SDS011;24025;48.138;11.428;2023-12-04T03:45:56;7.63;;;3.47;;
38224;SDS011;24025;48.138;11.428;2023-12-04T03:48:27;4.63;;;2.58;;
38224;SDS011;24025;48.138;11.428;2023-12-04T03:50:59;6.03;;;2.58;;
38224;SDS011;24025;48.138;11.428;2023-12-04T03:53:31;7.43;;;3.00;;
38224;SDS011;24025;48.138;11.428;2023-12-04T03:56:04;7.90;;;3.42;;
38224;SDS011;24025;48.138;11.428;2023-12-04T03:58:36;10.00;;;3.47;;
38224;SDS011;24025;48.138;11.428;2023-12-04T04:01:09;10.10;;;4.45;;
38224;SDS011;24025;48.138;11.428;2023-12-04T04:03:41;7.50;;;4.25;;
38224;SDS011;24025;48.138;11.428;2023-12-04T04:06:16;11.68;;;4.78;;
38224;SDS011;24025;48.138;11.428;2023-12-04T04:08:48;11.43;;;5.07;;
38224;SDS011;24025;48.138;11.428;2023-12-04T04:11:19;15.25;;;5.55;;
38224;SDS011;24025;48.138;11.428;2023-12-04T04:13:51;10.48;;;5.80;;
38224;SDS011;24025;48.138;11.428;2023-12-04T04:16:24;11.20;;;5.32;;
38224;SDS011;24025;48.138;11.428;2023-12-04T04:18:55;10.98;;;5.32;;
38224;SDS011;24025;48.138;11.428;2023-12-04T04:21:27;11.27;;;5.78;;
38224;SDS011;24025;48.138;11.428;2023-12-04T04:23:59;10.65;;;5.22;;
38224;SDS011;24025;48.138;11.428;2023-12-04T04:26:30;11.70;;;4.50;;
38224;SDS011;24025;48.138;11.428;2023-12-04T04:29:02;10.65;;;5.47;;
38224;SDS011;24025;48.138;11.428;2023-12-04T04:31:34;11.55;;;4.97;;
38224;SDS011;24025;48.138;11.428;2023-12-04T04:34:05;9.65;;;5.00;;
38224;SDS011;24025;48.138;11.428;2023-12-04T04:36:39;12.15;;;5.55;;
38224;SDS011;24025;48.138;11.428;2023-12-04T04:39:12;11.18;;;5.00;;
38224;SDS011;24025;48.138;11.428;2023-12-04T04:41:44;11.82;;;6.07;;
38224;SDS011;24025;48.138;11.428;2023-12-04T04:44:16;15.55;;;6.05;;
38224;SDS011;24025;48.138;11.428;2023-12-04T04:46:48;9.13;;;4.68;;
38224;SDS011;24025;48.138;11.428;2023-12-04T04:49:19;10.05;;;5.50;;
38224;SDS011;24025;48.138;11.428;2023-12-04T04:51:51;11.02;;;5.63;;
38224;SDS011;24025;48.138;11.428;2023-12-04T04:54:22;13.23;;;4.43;;
38224;SDS011;24025;48.138;11.428;2023-12-04T04:56:54;10.55;;;5.35;;
38224;SDS011;24025;48.138;11.428;2023-12-04T04:59:26;18.10;;;6.25;;
38224;SDS011;24025;48.138;11.428;2023-12-04T05:02:01;16.08;;;5.82;;
38224;SDS011;24025;48.138;11.428;2023-12-04T05:04:32;11.88;;;4.95;;
38224;SDS011;24025;48.138;11.428;2023-12-04T05:07:04;14.77;;;6.30;;
38224;SDS011;24025;48.138;11.428;2023-12-04T05:09:36;9.10;;;4.75;;
38224;SDS011;24025;48.138;11.428;2023-12-04T05:12:08;7.88;;;4.72;;
38224;SDS011;24025;48.138;11.428;2023-12-04T05:14:39;11.13;;;4.72;;
38224;SDS011;24025;48.138;11.428;2023-12-04T05:17:11;10.07;;;5.00;;
38224;SDS011;24025;48.138;11.428;2023-12-04T05:19:43;15.35;;;6.25;;
38224;SDS011;24025;48.138;11.428;2023-12-04T05:22:14;13.77;;;5.80;;
38224;SDS011;24025;48.138;11.428;2023-12-04T05:24:46;12.40;;;5.10;;
38224;SDS011;24025;48.138;11.428;2023-12-04T05:27:18;12.40;;;5.53;;
38224;SDS011;24025;48.138;11.428;2023-12-04T05:29:50;12.95;;;4.70;;
38224;SDS011;24025;48.138;11.428;2023-12-04T05:32:22;16.98;;;5.25;;
38224;SDS011;24025;48.138;11.428;2023-12-04T05:34:54;12.45;;;5.60;;
38224;SDS011;24025;48.138;11.428;2023-12-04T05:37:25;8.50;;;4.60;;
38224;SDS011;24025;48.138;11.428;2023-12-04T05:39:57;9.50;;;4.53;;
38224;SDS011;24025;48.138;11.428;2023-12-04T05:42:29;16.02;;;5.45;;
38224;SDS011;24025;48.138;11.428;2023-12-04T05:45:00;9.30;;;3.17;;
38224;SDS011;24025;48.138;11.428;2023-12-04T05:47:32;13.23;;;4.70;;
38224;SDS011;24025;48.138;11.428;2023-12-04T05:50:04;11.13;;;7.05;;
38224;SDS011;24025;48.138;11.428;2023-12-04T05:52:36;10.73;;;4.38;;
38224;SDS011;24025;48.138;11.428;2023-12-04T05:55:08;7.93;;;4.43;;
38224;SDS011;24025;48.138;11.428;2023-12-04T05:57:40;15.40;;;4.60;;
38224;SDS011;24025;48.138;11.428;2023-12-04T06:00:11;9.05;;;4.85;;
38224;SDS011;24025;48.138;11.428;2023-12-04T06:02:44;11.70;;;5.82;;
38224;SDS011;24025;48.138;11.428;2023-12-04T06:05:16;8.65;;;4.43;;
38224;SDS011;24025;48.138;11.428;2023-12-04T06:07:48;13.75;;;5.60;;
38224;SDS011;24025;48.138;11.428;2023-12-04T06:10:19;12.73;;;5.00;;
38224;SDS011;24025;48.138;11.428;2023-12-04T06:12:51;14.10;;;6.03;;
38224;SDS011;24025;48.138;11.428;2023-12-04T06:15:23;13.80;;;6.10;;
38224;SDS011;24025;48.138;11.428;2023-12-04T06:17:54;13.00;;;5.32;;
38224;SDS011;24025;48.138;11.428;2023-12-04T06:20:26;13.32;;;5.18;;
38224;SDS011;24025;48.138;11.428;2023-12-04T06:22:58;19.05;;;6.43;;
38224;SDS011;24025;48.138;11.428;2023-12-04T06:25:30;10.95;;;5.95;;
38224;SDS011;24025;48.138;11.428;2023-12-04T06:28:02;12.98;;;5.70;;
38224;SDS011;24025;48.138;11.428;2023-12-04T06:30:34;12.32;;;4.90;;
38224;SDS011;24025;48.138;11.428;2023-12-04T06:33:06;11.43;;;5.07;;
38224;SDS011;24025;48.138;11.428;2023-12-04T06:35:39;18.90;;;7.18;;
38224;SDS011;24025;48.138;11.428;2023-12-04T06:38:11;24.25;;;7.10;;
38224;SDS011;24025;48.138;11.428;2023-12-04T06:40:46;16.63;;;7.03;;
38224;SDS011;24025;48.138;11.428;2023-12-04T06:43:18;23.60;;;9.40;;
38224;SDS011;24025;48.138;11.428;2023-12-04T06:45:50;28.23;;;11.57;;
38224;SDS011;24025;48.138;11.428;2023-12-04T06:48:22;29.85;;;10.40;;
38224;SDS011;24025;48.138;11.428;2023-12-04T06:50:54;25.17;;;10.65;;
38224;SDS011;24025;48.138;11.428;2023-12-04T06:53:26;36.75;;;13.38;;
38224;SDS011;24025;48.138;11.428;2023-12-04T06:58:29;17.65;;;6.88;;
38224;SDS011;24025;48.138;11.428;2023-12-04T07:01:01;14.63;;;7.18;;
38224;SDS011;24025;48.138;11.428;2023-12-04T07:03:33;13.60;;;6.20;;
38224;SDS011;24025;48.138;11.428;2023-12-04T07:06:05;10.48;;;4.43;;
38224;SDS011;24025;48.138;11.428;2023-12-04T07:08:37;13.27;;;7.00;;
38224;SDS011;24025;48.138;11.428;2023-12-04T07:11:09;13.27;;;6.32;;
38224;SDS011;24025;48.138;11.428;2023-12-04T07:13:41;18.95;;;7.03;;
38224;SDS011;24025;48.138;11.428;2023-12-04T07:16:13;16.15;;;6.50;;
38224;SDS011;24025;48.138;11.428;2023-12-04T07:18:45;12.93;;;7.00;;
38224;SDS011;24025;48.138;11.428;2023-12-04T07:21:16;15.43;;;7.15;;
38224;SDS011;24025;48.138;11.428;2023-12-04T07:23:48;14.65;;;6.35;;
38224;SDS011;24025;48.138;11.428;2023-12-04T07:26:20;24.63;;;7.57;;
38224;SDS011;24025;48.138;11.428;2023-12-04T07:28:51;15.73;;;5.95;;
38224;SDS011;24025;48.138;11.428;2023-12-04T07:31:23;14.52;;;6.75;;
38224;SDS011;24025;48.138;11.428;2023-12-04T07:33:54;15.07;;;7.00;;
38224;SDS011;24025;48.138;11.428;2023-12-04T07:36:27;19.48;;;8.48;;
38224;SDS011;24025;48.138;11.428;2023-12-04T07:39:00;17.85;;;7.07;;
38224;SDS011;24025;48.138;11.428;2023-12-04T07:41:32;18.80;;;7.80;;
38224;SDS011;24025;48.138;11.428;2023-12-04T07:44:04;17.98;;;7.70;;
38224;SDS011;24025;48.138;11.428;2023-12-04T07:46:36;20.20;;;7.38;;
38224;SDS011;24025;48.138;11.428;2023-12-04T07:49:07;14.90;;;7.03;;
38224;SDS011;24025;48.138;11.428;2023-12-04T07:51:39;15.75;;;6.15;;
38224;SDS011;24025;48.138;11.428;2023-12-04T07:54:11;24.02;;;7.65;;
38224;SDS011;24025;48.138;11.428;2023-12-04T07:56:43;14.82;;;7.88;;
38224;SDS011;24025;48.138;11.428;2023-12-04T07:59:15;19.95;;;7.15;;
38224;SDS011;24025;48.138;11.428;2023-12-04T08:01:47;18.25;;;8.75;;
38224;SDS011;24025;48.138;11.428;2023-12-04T08:04:19;26.35;;;9.98;;
38224;SDS011;24025;48.138;11.428;2023-12-04T08:06:50;10.57;;;6.10;;
38224;SDS011;24025;48.138;11.428;2023-12-04T08:09:22;20.10;;;8.07;;
38224;SDS011;24025;48.138;11.428;2023-12-04T08:11:54;21.77;;;8.00;;
38224;SDS011;24025;48.138;11.428;2023-12-04T08:14:28;21.98;;;9.00;;
38224;SDS011;24025;48.138;11.428;2023-12-04T08:17:01;17.98;;;6.72;;
38224;SDS011;24025;48.138;11.428;2023-12-04T08:19:34;20.98;;;8.27;;
38224;SDS011;24025;48.138;11.428;2023-12-04T08:22:06;19.77;;;8.02;;
38224;SDS011;24025;48.138;11.428;2023-12-04T08:24:38;17.35;;;7.30;;
38224;SDS011;24025;48.138;11.428;2023-12-04T08:27:10;14.15;;;6.18;;
38224;SDS011;24025;48.138;11.428;2023-12-04T08:29:41;19.02;;;8.45;;
38224;SDS011;24025;48.138;11.428;2023-12-04T08:32:13;20.55;;;8.02;;
38224;SDS011;24025;48.138;11.428;2023-12-04T08:34:45;17.70;;;7.47;;
38224;SDS011;24025;48.138;11.428;2023-12-04T08:37:17;20.85;;;8.02;;
38224;SDS011;24025;48.138;11.428;2023-12-04T08:39:50;13.07;;;6.40;;
38224;SDS011;24025;48.138;11.428;2023-12-04T08:42:21;19.42;;;7.72;;
38224;SDS011;24025;48.138;11.428;2023-12-04T08:44:54;20.33;;;8.48;;
38224;SDS011;24025;48.138;11.428;2023-12-04T08:47:29;18.98;;;8.55;;
38224;SDS011;24025;48.138;11.428;2023-12-04T08:50:00;18.92;;;8.02;;
38224;SDS011;24025;48.138;11.428;2023-12-04T08:52:32;16.25;;;6.78;;
38224;SDS011;24025;48.138;11.428;2023-12-04T08:55:05;14.88;;;7.10;;
38224;SDS011;24025;48.138;11.428;2023-12-04T08:57:40;15.20;;;7.13;;
38224;SDS011;24025;48.138;11.428;2023-12-04T09:00:12;17.33;;;7.90;;
38224;SDS011;24025;48.138;11.428;2023-12-04T09:07:59;14.15;;;5.18;;
38224;SDS011;24025;48.138;11.428;2023-12-04T09:10:51;14.57;;;5.97;;
38224;SDS011;24025;48.138;11.428;2023-12-04T09:13:43;22.20;;;8.20;;
38224;SDS011;24025;48.138;11.428;2023-12-04T09:16:16;13.30;;;6.35;;
38224;SDS011;24025;48.138;11.428;2023-12-04T09:18:48;15.60;;;7.07;;
38224;SDS011;24025;48.138;11.428;2023-12-04T09:21:20;21.60;;;7.60;;
38224;SDS011;24025;48.138;11.428;2023-12-04T09:23:52;10.82;;;6.15;;
38224;SDS011;24025;48.138;11.428;2023-12-04T09:26:24;15.43;;;6.75;;
38224;SDS011;24025;48.138;11.428;2023-12-04T09:28:55;19.50;;;8.13;;
38224;SDS011;24025;48.138;11.428;2023-12-04T09:31:27;17.05;;;7.20;;
38224;SDS011;24025;48.138;11.428;2023-12-04T09:33:59;13.40;;;6.43;;
38224;SDS011;24025;48.138;11.428;2023-12-04T09:36:31;16.42;;;7.43;;
38224;SDS011;24025;48.138;11.428;2023-12-04T09:39:03;16.42;;;7.43;;
38224;SDS011;24025;48.138;11.428;2023-12-04T09:44:08;15.73;;;6.90;;
38224;SDS011;24025;48.138;11.428;2023-12-04T09:46:39;16.20;;;6.75;;
38224;SDS011;24025;48.138;11.428;2023-12-04T09:49:12;12.18;;;6.18;;
38224;SDS011;24025;48.138;11.428;2023-12-04T09:51:48;14.15;;;7.60;;
38224;SDS011;24025;48.138;11.428;2023-12-04T09:54:19;16.30;;;7.53;;
38224;SDS011;24025;48.138;11.428;2023-12-04T09:56:51;10.02;;;5.45;;
38224;SDS011;24025;48.138;11.428;2023-12-04T09:59:23;14.68;;;6.93;;
38224;SDS011;24025;48.138;11.428;2023-12-04T10:01:59;15.88;;;6.45;;
38224;SDS011;24025;48.138;11.428;2023-12-04T10:04:32;16.45;;;7.07;;
38224;SDS011;24025;48.138;11.428;2023-12-04T10:07:07;14.77;;;5.97;;
38224;SDS011;24025;48.138;11.428;2023-12-04T10:12:12;14.73;;;6.70;;
38224;SDS011;24025;48.138;11.428;2023-12-04T10:17:39;14.65;;;7.60;;
38224;SDS011;24025;48.138;11.428;2023-12-04T10:20:13;19.70;;;8.35;;
38224;SDS011;24025;48.138;11.428;2023-12-04T10:22:56;25.88;;;8.73;;
38224;SDS011;24025;48.138;11.428;2023-12-04T10:25:30;13.50;;;7.55;;
38224;SDS011;24025;48.138;11.428;2023-12-04T10:30:40;17.83;;;7.30;;
38224;SDS011;24025;48.138;11.428;2023-12-04T10:33:13;17.70;;;7.90;;
38224;SDS011;24025;48.138;11.428;2023-12-04T10:35:46;14.32;;;6.75;;
38224;SDS011;24025;48.138;11.428;2023-12-04T10:38:18;12.55;;;6.97;;
38224;SDS011;24025;48.138;11.428;2023-12-04T10:40:50;17.48;;;7.20;;
38224;SDS011;24025;48.138;11.428;2023-12-04T10:43:24;13.60;;;6.10;;
38224;SDS011;24025;48.138;11.428;2023-12-04T10:45:56;13.18;;;6.57;;
38224;SDS011;24025;48.138;11.428;2023-12-04T10:48:27;12.40;;;6.88;;
38224;SDS011;24025;48.138;11.428;2023-12-04T10:50:59;14.18;;;7.07;;
38224;SDS011;24025;48.138;11.428;2023-12-04T10:53:31;14.40;;;7.03;;
38224;SDS011;24025;48.138;11.428;2023-12-04T10:56:04;14.40;;;6.70;;
38224;SDS011;24025;48.138;11.428;2023-12-04T10:58:37;10.52;;;5.95;;
38224;SDS011;24025;48.138;11.428;2023-12-04T11:01:10;11.40;;;7.13;;
38224;SDS011;24025;48.138;11.428;2023-12-04T11:03:44;13.30;;;6.72;;
38224;SDS011;24025;48.138;11.428;2023-12-04T11:06:20;11.60;;;6.55;;
38224;SDS011;24025;48.138;11.428;2023-12-04T11:08:53;15.40;;;6.95;;
38224;SDS011;24025;48.138;11.428;2023-12-04T11:11:34;12.25;;;6.00;;
38224;SDS011;24025;48.138;11.428;2023-12-04T11:14:11;9.57;;;5.25;;
38224;SDS011;24025;48.138;11.428;2023-12-04T11:16:54;12.63;;;6.22;;
38224;SDS011;24025;48.138;11.428;2023-12-04T11:22:27;14.57;;;5.90;;
38224;SDS011;24025;48.138;11.428;2023-12-04T11:24:59;11.52;;;5.70;;
38224;SDS011;24025;48.138;11.428;2023-12-04T11:27:34;11.57;;;5.88;;
38224;SDS011;24025;48.138;11.428;2023-12-04T11:30:06;12.82;;;5.68;;
38224;SDS011;24025;48.138;11.428;2023-12-04T11:32:45;9.85;;;6.25;;
38224;SDS011;24025;48.138;11.428;2023-12-04T11:35:23;18.58;;;6.72;;
38224;SDS011;24025;48.138;11.428;2023-12-04T11:37:57;16.50;;;6.72;;
38224;SDS011;24025;48.138;11.428;2023-12-04T11:40:29;13.45;;;6.47;;
38224;SDS011;24025;48.138;11.428;2023-12-04T11:43:01;12.77;;;6.13;;
38224;SDS011;24025;48.138;11.428;2023-12-04T11:45:52;11.02;;;6.55;;
38224;SDS011;24025;48.138;11.428;2023-12-04T11:48:25;13.07;;;6.60;;
38224;SDS011;24025;48.138;11.428;2023-12-04T11:50:57;12.77;;;7.00;;
38224;SDS011;24025;48.138;11.428;2023-12-04T11:53:31;15.52;;;7.00;;
38224;SDS011;24025;48.138;11.428;2023-12-04T11:56:10;14.73;;;6.55;;
38224;SDS011;24025;48.138;11.428;2023-12-04T11:58:43;14.73;;;7.28;;
38224;SDS011;24025;48.138;11.428;2023-12-04T12:01:19;14.35;;;6.07;;
38224;SDS011;24025;48.138;11.428;2023-12-04T12:03:51;15.30;;;7.72;;
38224;SDS011;24025;48.138;11.428;2023-12-04T12:06:24;17.45;;;7.57;;
38224;SDS011;24025;48.138;11.428;2023-12-04T12:08:56;19.40;;;6.75;;
38224;SDS011;24025;48.138;11.428;2023-12-04T12:11:29;21.10;;;6.07;;
38224;SDS011;24025;48.138;11.428;2023-12-04T12:14:01;17.80;;;7.80;;
38224;SDS011;24025;48.138;11.428;2023-12-04T12:16:33;16.88;;;8.68;;
38224;SDS011;24025;48.138;11.428;2023-12-04T12:19:04;17.88;;;6.75;;
38224;SDS011;24025;48.138;11.428;2023-12-04T12:21:36;16.25;;;7.68;;
38224;SDS011;24025;48.138;11.428;2023-12-04T12:24:08;29.88;;;9.10;;
38224;SDS011;24025;48.138;11.428;2023-12-04T12:26:44;15.30;;;8.25;;
38224;SDS011;24025;48.138;11.428;2023-12-04T12:29:15;14.40;;;6.93;;
38224;SDS011;24025;48.138;11.428;2023-12-04T12:31:49;16.17;;;8.23;;
38224;SDS011;24025;48.138;11.428;2023-12-04T12:34:21;12.43;;;6.57;;
38224;SDS011;24025;48.138;11.428;2023-12-04T12:36:53;15.05;;;7.47;;
38224;SDS011;24025;48.138;11.428;2023-12-04T12:39:24;18.95;;;8.95;;
38224;SDS011;24025;48.138;11.428;2023-12-04T12:41:56;17.90;;;9.18;;
38224;SDS011;24025;48.138;11.428;2023-12-04T12:44:28;17.37;;;7.50;;
38224;SDS011;24025;48.138;11.428;2023-12-04T12:47:02;18.00;;;8.13;;
38224;SDS011;24025;48.138;11.428;2023-12-04T12:49:33;13.40;;;7.15;;
38224;SDS011;24025;48.138;11.428;2023-12-04T12:52:12;14.80;;;7.60;;
38224;SDS011;24025;48.138;11.428;2023-12-04T12:54:45;15.43;;;7.35;;
38224;SDS011;24025;48.138;11.428;2023-12-04T12:57:17;12.82;;;6.78;;
38224;SDS011;24025;48.138;11.428;2023-12-04T12:59:49;14.90;;;7.18;;
38224;SDS011;24025;48.138;11.428;2023-12-04T13:02:20;13.57;;;7.20;;
38224;SDS011;24025;48.138;11.428;2023-12-04T13:04:55;17.40;;;7.50;;
38224;SDS011;24025;48.138;11.428;2023-12-04T13:07:27;15.20;;;6.95;;
38224;SDS011;24025;48.138;11.428;2023-12-04T13:09:59;13.13;;;6.43;;
38224;SDS011;24025;48.138;11.428;2023-12-04T13:12:31;14.60;;;7.00;;
38224;SDS011;24025;48.138;11.428;2023-12-04T13:17:36;15.32;;;7.60;;
38224;SDS011;24025;48.138;11.428;2023-12-04T13:20:08;18.05;;;8.25;;
38224;SDS011;24025;48.138;11.428;2023-12-04T13:22:45;15.48;;;7.50;;
38224;SDS011;24025;48.138;11.428;2023-12-04T13:25:17;14.30;;;7.57;;
38224;SDS011;24025;48.138;11.428;2023-12-04T13:27:49;16.27;;;7.53;;
38224;SDS011;24025;48.138;11.428;2023-12-04T13:30:21;19.10;;;7.22;;
38224;SDS011;24025;48.138;11.428;2023-12-04T13:32:54;15.82;;;7.85;;
38224;SDS011;24025;48.138;11.428;2023-12-04T13:35:26;18.20;;;7.30;;
38224;SDS011;24025;48.138;11.428;2023-12-04T13:37:58;11.40;;;6.88;;
38224;SDS011;24025;48.138;11.428;2023-12-04T13:40:30;14.23;;;6.70;;
38224;SDS011;24025;48.138;11.428;2023-12-04T13:43:03;13.02;;;6.75;;
38224;SDS011;24025;48.138;11.428;2023-12-04T13:45:54;13.52;;;7.15;;
38224;SDS011;24025;48.138;11.428;2023-12-04T13:48:27;17.25;;;8.88;;
38224;SDS011;24025;48.138;11.428;2023-12-04T13:50:59;24.13;;;9.77;;
38224;SDS011;24025;48.138;11.428;2023-12-04T13:53:31;19.15;;;9.00;;
38224;SDS011;24025;48.138;11.428;2023-12-04T13:56:03;20.15;;;9.15;;
38224;SDS011;24025;48.138;11.428;2023-12-04T13:58:55;19.60;;;9.93;;
38224;SDS011;24025;48.138;11.428;2023-12-04T14:01:30;21.23;;;10.50;;
38224;SDS011;24025;48.138;11.428;2023-12-04T14:04:02;19.58;;;9.90;;
38224;SDS011;24025;48.138;11.428;2023-12-04T14:06:34;22.92;;;10.57;;
38224;SDS011;24025;48.138;11.428;2023-12-04T14:09:06;25.70;;;10.68;;
38224;SDS011;24025;48.138;11.428;2023-12-04T14:11:42;19.27;;;9.55;;
38224;SDS011;24025;48.138;11.428;2023-12-04T14:14:17;20.33;;;10.55;;
38224;SDS011;24025;48.138;11.428;2023-12-04T14:16:49;24.48;;;11.95;;
38224;SDS011;24025;48.138;11.428;2023-12-04T14:19:20;20.80;;;9.55;;
38224;SDS011;24025;48.138;11.428;2023-12-04T14:24:25;24.50;;;9.70;;
38224;SDS011;24025;48.138;11.428;2023-12-04T14:26:57;17.47;;;9.77;;
38224;SDS011;24025;48.138;11.428;2023-12-04T14:29:28;17.15;;;9.02;;
38224;SDS011;24025;48.138;11.428;2023-12-04T14:32:00;32.23;;;10.47;;
38224;SDS011;24025;48.138;11.428;2023-12-04T14:34:32;26.58;;;11.05;;
38224;SDS011;24025;48.138;11.428;2023-12-04T14:37:04;23.80;;;10.05;;
38224;SDS011;24025;48.138;11.428;2023-12-04T14:39:35;23.30;;;10.55;;
38224;SDS011;24025;48.138;11.428;2023-12-04T14:42:07;17.17;;;9.03;;
38224;SDS011;24025;48.138;11.428;2023-12-04T14:44:39;23.20;;;10.75;;
38224;SDS011;24025;48.138;11.428;2023-12-04T14:47:10;22.58;;;9.90;;
38224;SDS011;24025;48.138;11.428;2023-12-04T14:49:43;23.00;;;9.48;;
38224;SDS011;24025;48.138;11.428;2023-12-04T14:52:14;19.42;;;9.80;;
38224;SDS011;24025;48.138;11.428;2023-12-04T14:54:47;22.90;;;10.25;;
38224;SDS011;24025;48.138;11.428;2023-12-04T14:57:30;22.20;;;11.23;;
38224;SDS011;24025;48.138;11.428;2023-12-04T15:00:11;21.25;;;10.60;;
38224;SDS011;24025;48.138;11.428;2023-12-04T15:03:01;21.42;;;10.52;;
38224;SDS011;24025;48.138;11.428;2023-12-04T15:05:52;18.13;;;9.55;;
38224;SDS011;24025;48.138;11.428;2023-12-04T15:08:36;25.60;;;11.48;;
38224;SDS011;24025;48.138;11.428;2023-12-04T15:11:28;23.33;;;9.98;;
38224;SDS011;24025;48.138;11.428;2023-12-04T15:14:34;18.35;;;10.15;;
38224;SDS011;24025;48.138;11.428;2023-12-04T15:17:09;22.67;;;11.25;;
38224;SDS011;24025;48.138;11.428;2023-12-04T15:19:49;22.88;;;11.10;;
38224;SDS011;24025;48.138;11.428;2023-12-04T15:22:43;18.98;;;10.38;;
38224;SDS011;24025;48.138;11.428;2023-12-04T15:25:15;22.60;;;11.45;;
38224;SDS011;24025;48.138;11.428;2023-12-04T15:27:47;31.27;;;11.25;;